createdAt,value
2023-09-11T00:00:34.861Z,78.89
2023-09-11T00:03:02.054Z,78.49
2023-09-11T00:05:28.940Z,78.59
2023-09-11T00:07:55.798Z,78.67
2023-09-11T00:10:22.543Z,78.92
2023-09-11T00:12:49.220Z,79.21
2023-09-11T00:15:16.053Z,79.56
2023-09-11T00:17:43.199Z,78.95
2023-09-11T00:20:10.652Z,78.37
2023-09-11T00:22:38.112Z,78.01
2023-09-11T00:25:05.527Z,78.98
2023-09-11T00:27:32.189Z,78.91
2023-09-11T00:29:58.813Z,79.58
2023-09-11T00:32:25.733Z,79.47
2023-09-11T00:34:52.401Z,79.23
2023-09-11T00:37:19.271Z,79.55
2023-09-11T00:39:46.147Z,80.53
2023-09-11T00:42:12.943Z,81.62
2023-09-11T00:44:39.712Z,81.04
2023-09-11T00:47:07.267Z,80.54
2023-09-11T00:49:34.594Z,80.01
2023-09-11T00:52:02.984Z,78.86
2023-09-11T00:54:30.055Z,78.83
2023-09-11T00:56:57.486Z,81.06
2023-09-11T00:59:24.832Z,82.46
2023-09-11T01:01:52.816Z,81.97
2023-09-11T01:04:19.539Z,81.61
2023-09-11T01:06:47.396Z,81.15
2023-09-11T01:09:14.638Z,81.08
2023-09-11T01:11:41.306Z,80.23
2023-09-11T01:14:08.238Z,81.08
2023-09-11T01:16:43.850Z,81.14
2023-09-11T01:19:22.736Z,81.26
2023-09-11T01:22:12.168Z,82.78
2023-09-11T01:25:11.280Z,81.28
2023-09-11T01:28:09.642Z,82.56
2023-09-11T01:30:36.494Z,81.73
2023-09-11T01:33:04.124Z,80.16
2023-09-11T01:35:30.922Z,80.46
2023-09-11T01:37:58.206Z,81.97
2023-09-11T01:40:27.245Z,83.64
2023-09-11T01:42:56.801Z,82.97
2023-09-11T01:45:24.898Z,81.33
2023-09-11T01:47:54.093Z,80.58
2023-09-11T01:50:23.371Z,80.86
2023-09-11T01:52:51.599Z,81.78
2023-09-11T01:55:18.494Z,83.05
2023-09-11T01:57:45.487Z,83.88
2023-09-11T02:00:13.660Z,83.75
2023-09-11T02:02:41.052Z,83.68
2023-09-11T02:05:08.686Z,82.61
2023-09-11T02:07:35.492Z,82.63
2023-09-11T02:10:02.676Z,81.94
2023-09-11T02:12:29.328Z,83.56
2023-09-11T02:14:55.994Z,82.87
2023-09-11T02:17:22.746Z,85.36
2023-09-11T02:19:49.541Z,86.15
2023-09-11T02:22:16.194Z,87.70
2023-09-11T02:24:43.160Z,87.61
2023-09-11T02:27:09.862Z,87.09
2023-09-11T02:29:36.574Z,87.74
2023-09-11T02:32:03.475Z,88.04
2023-09-11T02:34:30.211Z,87.52
2023-09-11T02:36:56.857Z,87.20
2023-09-11T02:39:23.794Z,88.45
2023-09-11T02:41:50.454Z,87.69
2023-09-11T02:44:17.494Z,87.87
2023-09-11T02:46:44.159Z,86.16
2023-09-11T02:49:12.114Z,88.57
2023-09-11T02:51:38.889Z,89.63
2023-09-11T02:54:05.628Z,89.40
2023-09-11T02:56:32.290Z,88.80
2023-09-11T02:58:58.905Z,87.93
2023-09-11T03:01:25.945Z,89.55
2023-09-11T03:03:52.973Z,90.90
2023-09-11T03:06:19.640Z,91.07
2023-09-11T03:08:46.330Z,91.51
2023-09-11T03:11:13.052Z,90.98
2023-09-11T03:13:40.282Z,90.48
2023-09-11T03:16:11.106Z,90.69
2023-09-11T03:18:39.096Z,90.14
2023-09-11T03:21:06.472Z,89.35
2023-09-11T03:23:33.245Z,91.60
2023-09-11T03:26:00.049Z,90.16
2023-09-11T03:28:31.846Z,92.58
2023-09-11T03:31:02.660Z,94.20
2023-09-11T03:33:29.512Z,93.95
2023-09-11T03:35:56.425Z,94.34
2023-09-11T03:38:23.176Z,95.29
2023-09-11T03:40:49.879Z,95.15
2023-09-11T03:43:16.634Z,95.29
2023-09-11T03:45:43.539Z,96.24
2023-09-11T03:48:10.325Z,97.65
2023-09-11T03:50:37.162Z,98.16
2023-09-11T03:53:04.003Z,98.61
2023-09-11T03:55:30.950Z,98.17
2023-09-11T03:57:57.786Z,98.26
2023-09-11T04:00:24.534Z,97.40
2023-09-11T04:02:51.288Z,98.31
2023-09-11T04:05:18.140Z,99.27
2023-09-11T04:07:45.308Z,99.59
2023-09-11T04:10:12.001Z,98.55
2023-09-11T04:12:38.700Z,98.59
2023-09-11T04:15:06.061Z,99.79
2023-09-11T04:17:32.966Z,100.00
2023-09-11T04:20:00.791Z,99.49
2023-09-11T04:22:27.404Z,98.71
2023-09-11T04:24:54.069Z,98.93
2023-09-11T04:27:20.890Z,99.93
2023-09-11T04:29:47.708Z,99.35
2023-09-11T04:32:14.483Z,99.62
2023-09-11T04:34:41.134Z,99.71
2023-09-11T04:37:08.033Z,100.00
2023-09-11T04:39:34.728Z,100.00
2023-09-11T04:42:01.480Z,99.31
2023-09-11T04:44:28.139Z,100.00
2023-09-11T04:46:54.911Z,100.00
2023-09-11T04:49:21.584Z,99.56
2023-09-11T04:51:49.571Z,100.00
2023-09-11T04:54:16.351Z,99.86
2023-09-11T04:56:43.033Z,98.95
2023-09-11T04:59:09.848Z,99.72
2023-09-11T05:01:36.763Z,100.00
2023-09-11T05:04:04.579Z,100.00
2023-09-11T05:06:31.410Z,99.85
2023-09-11T05:11:27.645Z,98.67
2023-09-11T05:13:54.303Z,98.69
2023-09-11T05:16:21.008Z,98.57
2023-09-11T05:18:47.766Z,99.48
2023-09-11T05:21:14.502Z,98.30
2023-09-11T05:23:41.304Z,99.33
2023-09-11T05:26:07.946Z,98.76
2023-09-11T05:28:34.605Z,98.51
2023-09-11T05:31:02.259Z,98.82
2023-09-11T05:33:29.073Z,100.00
2023-09-11T05:35:55.843Z,100.00
2023-09-11T05:38:22.611Z,100.00
2023-09-11T05:40:49.250Z,100.00
2023-09-11T05:43:16.271Z,100.00
2023-09-11T05:45:43.827Z,100.00
2023-09-11T05:48:10.556Z,100.00
2023-09-11T05:50:37.285Z,100.00
2023-09-11T05:53:04.206Z,100.00
2023-09-11T05:55:31.033Z,100.00
2023-09-11T05:57:57.737Z,100.00
2023-09-11T06:00:24.425Z,100.00
2023-09-11T06:02:51.087Z,100.00
2023-09-11T06:05:18.193Z,100.00
2023-09-11T06:07:45.186Z,100.00
2023-09-11T06:10:13.373Z,100.00
2023-09-11T06:12:40.232Z,100.00
2023-09-11T06:15:07.682Z,100.00
2023-09-11T06:17:44.023Z,100.00
2023-09-11T06:20:13.039Z,100.00
2023-09-11T06:22:39.759Z,100.00
2023-09-11T06:25:07.029Z,100.00
2023-09-11T06:27:34.819Z,100.00
2023-09-11T06:30:02.120Z,100.00
2023-09-11T06:32:29.068Z,100.00
2023-09-11T06:34:55.862Z,100.00
2023-09-11T06:37:22.700Z,100.00
2023-09-11T06:39:49.340Z,100.00
2023-09-11T06:42:22.662Z,99.70
2023-09-11T06:44:52.230Z,98.69
2023-09-11T06:47:20.107Z,98.10
2023-09-11T06:49:46.889Z,96.89
2023-09-11T06:52:13.732Z,95.31
2023-09-11T06:54:40.590Z,92.83
2023-09-11T06:57:07.533Z,93.08
2023-09-11T06:59:34.405Z,94.20
2023-09-11T07:02:01.219Z,92.50
2023-09-11T07:04:28.006Z,89.45
2023-09-11T07:06:54.943Z,89.00
2023-09-11T07:09:21.611Z,92.72
2023-09-11T07:11:48.358Z,92.04
2023-09-11T07:14:20.349Z,88.71
2023-09-11T07:16:47.020Z,87.93
2023-09-11T07:19:13.766Z,88.24
2023-09-11T07:21:40.718Z,81.73
2023-09-11T07:24:07.948Z,83.64
2023-09-11T07:26:34.774Z,85.84
2023-09-11T07:29:03.101Z,87.49
2023-09-11T07:31:30.337Z,84.29
2023-09-11T07:33:57.133Z,86.43
2023-09-11T07:36:24.997Z,84.76
2023-09-11T07:38:51.884Z,83.46
2023-09-11T07:41:19.652Z,81.19
2023-09-11T07:43:47.522Z,78.11
2023-09-11T07:46:14.859Z,76.44
2023-09-11T07:48:41.929Z,78.72
2023-09-11T07:51:09.025Z,74.64
2023-09-11T07:53:35.914Z,73.24
2023-09-11T07:56:09.789Z,72.84
2023-09-11T07:58:36.422Z,69.83
2023-09-11T08:01:03.638Z,68.28
2023-09-11T08:03:33.736Z,67.29
2023-09-11T08:06:01.654Z,67.31
2023-09-11T08:08:28.758Z,68.07
2023-09-11T08:10:57.960Z,66.54
2023-09-11T08:13:25.400Z,66.88
2023-09-11T08:15:52.499Z,66.12
2023-09-11T08:18:19.523Z,69.34
2023-09-11T08:20:46.529Z,66.69
2023-09-11T08:23:13.298Z,66.39
2023-09-11T08:25:39.957Z,67.44
2023-09-11T08:28:07.435Z,67.11
2023-09-11T08:30:34.961Z,61.44
2023-09-11T08:33:01.849Z,63.53
2023-09-11T08:35:28.609Z,64.06
2023-09-11T08:37:55.341Z,61.83
2023-09-11T08:40:22.093Z,59.81
2023-09-11T08:42:48.734Z,60.49
2023-09-11T08:45:15.501Z,58.57
2023-09-11T08:47:45.224Z,58.87
2023-09-11T08:50:12.545Z,56.47
2023-09-11T08:52:40.354Z,57.18
2023-09-11T08:55:10.016Z,55.05
2023-09-11T08:57:40.496Z,53.58
2023-09-11T09:00:11.649Z,54.19
2023-09-11T09:02:39.196Z,52.65
2023-09-11T09:05:07.308Z,54.00
2023-09-11T09:07:34.088Z,56.06
2023-09-11T09:10:01.590Z,50.24
2023-09-11T09:12:28.233Z,52.27
2023-09-11T09:14:54.915Z,53.94
2023-09-11T09:17:21.703Z,53.12
2023-09-11T09:19:48.368Z,53.00
2023-09-11T09:22:15.005Z,50.63
2023-09-11T09:25:02.032Z,48.42
2023-09-11T09:27:28.750Z,52.03
2023-09-11T09:29:55.837Z,56.90
2023-09-11T09:32:22.791Z,51.06
2023-09-11T09:34:56.309Z,49.25
2023-09-11T09:37:23.407Z,48.23
2023-09-11T09:39:50.184Z,48.84
2023-09-11T09:42:17.763Z,45.72
2023-09-11T09:44:51.747Z,47.32
2023-09-11T09:47:22.643Z,47.51
2023-09-11T09:49:53.119Z,48.67
2023-09-11T09:52:21.583Z,48.37
2023-09-11T09:54:50.755Z,50.82
2023-09-11T09:57:20.424Z,48.47
2023-09-11T10:00:07.112Z,46.47
2023-09-11T10:02:35.451Z,47.34
2023-09-11T10:05:07.811Z,45.07
2023-09-11T10:07:42.521Z,47.08
2023-09-11T10:10:29.616Z,45.21
2023-09-11T10:13:16.642Z,46.85
2023-09-11T10:15:44.639Z,43.54
2023-09-11T10:18:13.336Z,42.25
2023-09-11T10:20:40.957Z,44.93
2023-09-11T10:23:08.766Z,42.33
2023-09-11T10:25:40.499Z,42.32
2023-09-11T10:28:09.186Z,41.88
2023-09-11T10:30:57.907Z,40.89
2023-09-11T10:33:33.558Z,44.91
2023-09-11T10:36:09.860Z,44.68
2023-09-11T10:38:38.336Z,43.58
2023-09-11T10:41:07.290Z,43.01
2023-09-11T10:43:34.040Z,44.70
2023-09-11T10:46:23.740Z,43.43
2023-09-11T10:48:54.238Z,40.21
2023-09-11T10:51:21.131Z,40.16
2023-09-11T10:53:51.718Z,41.71
2023-09-11T10:56:18.651Z,44.12
2023-09-11T10:58:45.633Z,40.22
2023-09-11T11:01:15.430Z,40.57
2023-09-11T11:03:43.268Z,40.49
2023-09-11T11:06:18.633Z,39.02
2023-09-11T11:08:48.669Z,38.57
2023-09-11T11:11:24.950Z,39.54
2023-09-11T11:14:11.128Z,38.46
2023-09-11T11:16:38.456Z,38.71
2023-09-11T11:19:06.186Z,37.93
2023-09-11T11:21:41.533Z,39.67
2023-09-11T11:24:10.646Z,37.78
2023-09-11T11:26:38.024Z,39.04
2023-09-11T11:29:05.044Z,36.76
2023-09-11T11:31:33.510Z,38.88
2023-09-11T11:34:02.523Z,38.78
2023-09-11T11:36:29.177Z,39.23
2023-09-11T11:38:57.172Z,38.89
2023-09-11T11:41:24.494Z,39.92
2023-09-11T11:43:52.401Z,38.66
2023-09-11T11:46:20.706Z,35.53
2023-09-11T11:48:47.681Z,33.78
2023-09-11T11:51:28.495Z,35.21
2023-09-11T11:53:55.200Z,36.27
2023-09-11T11:56:22.273Z,34.95
2023-09-11T11:58:48.919Z,37.89
2023-09-11T12:01:15.565Z,39.60
2023-09-11T12:03:50.395Z,37.75
2023-09-11T12:06:18.008Z,39.44
2023-09-11T12:08:45.648Z,39.83
2023-09-11T12:11:12.382Z,37.84
2023-09-11T12:13:48.913Z,37.06
2023-09-11T12:16:17.674Z,35.27
2023-09-11T12:18:45.186Z,35.75
2023-09-11T12:21:12.241Z,37.00
2023-09-11T12:23:39.059Z,35.60
2023-09-11T12:26:05.878Z,36.77
2023-09-11T12:28:33.416Z,37.26
2023-09-11T12:31:00.391Z,33.78
2023-09-11T12:33:29.402Z,38.06
2023-09-11T12:35:57.096Z,37.14
2023-09-11T12:38:24.726Z,36.00
2023-09-11T12:40:54.831Z,34.19
2023-09-11T12:43:23.595Z,35.96
2023-09-11T12:45:50.472Z,35.37
2023-09-11T12:48:18.331Z,35.01
2023-09-11T12:50:45.639Z,36.73
2023-09-11T12:53:12.579Z,35.06
2023-09-11T12:55:39.312Z,35.28
2023-09-11T12:58:06.046Z,34.63
2023-09-11T13:00:35.393Z,36.50
2023-09-11T13:03:03.859Z,32.45
2023-09-11T13:05:31.832Z,33.31
2023-09-11T13:07:59.811Z,33.08
2023-09-11T13:10:27.068Z,35.52
2023-09-11T13:12:54.002Z,35.90
2023-09-11T13:15:21.100Z,33.81
2023-09-11T13:17:47.871Z,34.90
2023-09-11T13:20:14.632Z,35.81
2023-09-11T13:22:42.482Z,34.96
2023-09-11T13:25:11.834Z,34.98
2023-09-11T13:27:41.715Z,32.70
2023-09-11T13:30:08.904Z,31.83
2023-09-11T13:32:38.525Z,34.45
2023-09-11T13:35:07.269Z,32.45
2023-09-11T13:37:34.549Z,32.13
2023-09-11T13:40:01.293Z,32.46
2023-09-11T13:42:28.262Z,33.10
2023-09-11T13:44:56.537Z,35.52
2023-09-11T13:47:25.555Z,33.60
2023-09-11T13:49:52.686Z,35.35
2023-09-11T13:52:19.427Z,32.72
2023-09-11T13:54:47.023Z,32.38
2023-09-11T13:57:14.062Z,32.42
2023-09-11T13:59:42.379Z,34.57
2023-09-11T14:02:09.156Z,32.77
2023-09-11T14:04:36.050Z,33.56
2023-09-11T14:07:03.072Z,33.07
2023-09-11T14:09:30.429Z,32.42
2023-09-11T14:11:57.230Z,32.43
2023-09-11T14:14:23.943Z,32.35
2023-09-11T14:16:50.916Z,32.39
2023-09-11T14:19:17.529Z,35.01
2023-09-11T14:21:44.455Z,33.13
2023-09-11T14:24:11.257Z,34.26
2023-09-11T14:26:38.061Z,34.14
2023-09-11T14:29:06.334Z,31.50
2023-09-11T14:31:33.363Z,32.03
2023-09-11T14:34:00.050Z,31.93
2023-09-11T14:36:26.719Z,31.56
2023-09-11T14:38:53.696Z,32.95
2023-09-11T14:41:20.387Z,32.26
2023-09-11T14:43:47.012Z,32.64
2023-09-11T14:46:13.666Z,30.91
2023-09-11T14:48:43.952Z,31.54
2023-09-11T14:51:11.010Z,33.20
2023-09-11T14:53:42.077Z,31.37
2023-09-11T14:56:08.887Z,31.13
2023-09-11T14:58:35.511Z,33.58
2023-09-11T15:01:02.607Z,31.59
2023-09-11T15:03:29.799Z,32.63
2023-09-11T15:05:57.925Z,32.39
2023-09-11T15:08:24.957Z,34.02
2023-09-11T15:11:01.399Z,32.47
2023-09-11T15:13:28.714Z,32.94
2023-09-11T15:15:56.770Z,34.23
2023-09-11T15:18:27.514Z,33.47
2023-09-11T15:20:55.021Z,33.38
2023-09-11T15:23:21.786Z,32.71
2023-09-11T15:25:48.450Z,34.45
2023-09-11T15:28:15.481Z,34.53
2023-09-11T15:30:42.150Z,33.69
2023-09-11T15:33:10.134Z,35.54
2023-09-11T15:36:00.865Z,35.45
2023-09-11T15:38:30.248Z,35.28
2023-09-11T15:40:58.593Z,36.25
2023-09-11T15:43:26.390Z,33.45
2023-09-11T15:45:54.211Z,33.19
2023-09-11T15:48:21.194Z,35.02
2023-09-11T15:50:47.958Z,36.11
2023-09-11T15:53:14.697Z,33.43
2023-09-11T15:55:41.326Z,36.43
2023-09-11T15:58:07.983Z,37.39
2023-09-11T16:00:34.618Z,38.10
2023-09-11T16:03:01.391Z,37.81
2023-09-11T16:05:28.116Z,37.81
2023-09-11T16:07:54.763Z,39.07
2023-09-11T16:10:21.498Z,38.67
2023-09-11T16:12:48.340Z,40.01
2023-09-11T16:15:20.252Z,40.48
2023-09-11T16:17:46.944Z,40.01
2023-09-11T16:20:13.689Z,41.31
2023-09-11T16:22:40.581Z,40.46
2023-09-11T16:25:07.934Z,41.76
2023-09-11T16:27:34.573Z,41.27
2023-09-11T16:30:01.345Z,42.83
2023-09-11T16:32:28.065Z,42.92
2023-09-11T16:34:57.076Z,43.14
2023-09-11T16:37:25.249Z,44.82
2023-09-11T16:39:51.864Z,43.58
2023-09-11T16:42:18.625Z,43.66
2023-09-11T16:44:45.369Z,44.90
2023-09-11T16:47:12.098Z,45.10
2023-09-11T16:49:38.772Z,44.15
2023-09-11T16:52:05.991Z,44.45
2023-09-11T16:54:32.765Z,45.54
2023-09-11T16:56:59.527Z,45.82
2023-09-11T16:59:26.571Z,46.93
2023-09-11T17:01:53.208Z,46.68
2023-09-11T17:04:19.837Z,47.59
2023-09-11T17:06:47.700Z,47.35
2023-09-11T17:09:16.682Z,47.63
2023-09-11T17:11:43.306Z,47.14
2023-09-11T17:14:10.252Z,46.71
2023-09-11T17:16:36.896Z,46.27
2023-09-11T17:19:03.625Z,46.03
2023-09-11T17:21:30.348Z,48.69
2023-09-11T17:23:56.978Z,47.42
2023-09-11T17:26:23.839Z,48.54
2023-09-11T17:28:51.816Z,48.71
2023-09-11T17:31:18.697Z,49.20
2023-09-11T17:33:45.416Z,48.04
2023-09-11T17:36:12.307Z,48.38
2023-09-11T17:38:39.134Z,48.98
2023-09-11T17:41:05.957Z,48.33
2023-09-11T17:43:32.711Z,49.50
2023-09-11T17:46:00.305Z,50.04
2023-09-11T17:48:27.811Z,50.41
2023-09-11T17:50:54.988Z,50.22
2023-09-11T17:53:21.848Z,49.73
2023-09-11T17:55:48.486Z,50.81
2023-09-11T17:58:15.673Z,50.82
2023-09-11T18:00:42.533Z,52.24
2023-09-11T18:03:09.533Z,54.19
2023-09-11T18:05:36.397Z,53.94
2023-09-11T18:08:04.880Z,51.32
2023-09-11T18:10:31.619Z,53.47
2023-09-11T18:12:58.395Z,55.20
2023-09-11T18:15:25.143Z,53.99
2023-09-11T18:17:51.866Z,55.68
2023-09-11T18:20:18.812Z,55.15
2023-09-11T18:22:45.523Z,55.12
2023-09-11T18:25:12.300Z,54.72
2023-09-11T18:27:39.035Z,54.91
2023-09-11T18:30:06.482Z,55.15
2023-09-11T18:32:35.059Z,55.26
2023-09-11T18:35:01.780Z,54.80
2023-09-11T18:37:28.510Z,55.08
2023-09-11T18:39:55.223Z,55.72
2023-09-11T18:42:22.045Z,57.19
2023-09-11T18:44:50.508Z,57.12
2023-09-11T18:47:17.223Z,56.92
2023-09-11T18:49:43.944Z,56.48
2023-09-11T18:52:10.605Z,56.75
2023-09-11T18:54:37.416Z,57.58
2023-09-11T18:57:04.657Z,58.43
2023-09-11T18:59:31.684Z,59.70
2023-09-11T19:01:58.346Z,59.29
2023-09-11T19:04:25.220Z,59.73
2023-09-11T19:06:51.994Z,60.43
2023-09-11T19:09:18.783Z,59.74
2023-09-11T19:11:45.425Z,60.78
2023-09-11T19:14:12.253Z,61.90
2023-09-11T19:16:39.132Z,62.66
2023-09-11T19:19:06.183Z,61.63
2023-09-11T19:21:32.929Z,61.74
2023-09-11T19:23:59.793Z,61.43
2023-09-11T19:26:26.695Z,61.80
2023-09-11T19:28:53.556Z,62.43
2023-09-11T19:31:20.468Z,62.34
2023-09-11T19:33:47.305Z,64.15
2023-09-11T19:36:14.133Z,62.25
2023-09-11T19:38:41.159Z,62.23
2023-09-11T19:41:08.405Z,63.15
2023-09-11T19:43:35.368Z,63.86
2023-09-11T19:46:02.450Z,62.30
2023-09-11T19:48:29.178Z,64.04
2023-09-11T19:50:56.280Z,64.78
2023-09-11T19:53:23.066Z,65.15
2023-09-11T19:55:50.034Z,64.84
2023-09-11T19:58:16.727Z,64.51
2023-09-11T20:00:43.728Z,65.30
2023-09-11T20:03:10.696Z,65.04
2023-09-11T20:05:37.558Z,64.71
2023-09-11T20:08:04.678Z,65.35
2023-09-11T20:10:31.589Z,65.33
2023-09-11T20:12:58.268Z,66.07
2023-09-11T20:15:25.009Z,67.34
2023-09-11T20:17:53.601Z,68.70
2023-09-11T20:22:47.212Z,66.54
2023-09-11T20:25:14.134Z,66.66
2023-09-11T20:27:40.808Z,67.29
2023-09-11T20:30:08.095Z,67.39
2023-09-11T20:32:35.956Z,67.03
2023-09-11T20:35:03.078Z,67.37
2023-09-11T20:37:31.033Z,66.50
2023-09-11T20:39:59.196Z,66.65
2023-09-11T20:42:26.204Z,67.52
2023-09-11T20:44:52.862Z,66.67
2023-09-11T20:47:19.690Z,67.56
2023-09-11T20:49:46.602Z,68.03
2023-09-11T20:52:13.246Z,67.24
2023-09-11T20:54:39.901Z,66.81
2023-09-11T20:57:06.592Z,68.77
2023-09-11T20:59:33.509Z,68.69
2023-09-11T21:02:00.176Z,69.21
2023-09-11T21:04:26.978Z,68.97
2023-09-11T21:06:53.765Z,68.17
2023-09-11T21:09:20.779Z,68.43
2023-09-11T21:11:47.552Z,68.08
2023-09-11T21:14:14.183Z,68.08
2023-09-11T21:16:41.056Z,69.01
2023-09-11T21:19:07.865Z,68.78
2023-09-11T21:21:34.551Z,67.56
2023-09-11T21:24:02.957Z,68.93
2023-09-11T21:26:29.644Z,68.96
2023-09-11T21:28:56.306Z,67.83
2023-09-11T21:31:23.296Z,68.24
2023-09-11T21:33:50.213Z,68.22
2023-09-11T21:36:17.026Z,68.31
2023-09-11T21:38:43.935Z,68.84
2023-09-11T21:41:10.815Z,69.05
2023-09-11T21:43:37.648Z,69.33
2023-09-11T21:46:04.354Z,69.99
2023-09-11T21:48:31.148Z,69.15
2023-09-11T21:50:57.871Z,69.58
2023-09-11T21:53:24.596Z,69.12
2023-09-11T21:55:51.326Z,71.41
2023-09-11T21:58:18.009Z,72.41
2023-09-11T22:00:44.773Z,72.44
2023-09-11T22:03:11.590Z,72.93
2023-09-11T22:05:46.002Z,72.18
2023-09-11T22:08:12.715Z,71.13
2023-09-11T22:10:42.954Z,70.06
2023-09-11T22:13:09.892Z,70.95
2023-09-11T22:15:37.305Z,72.31
2023-09-11T22:18:04.578Z,74.91
2023-09-11T22:20:31.471Z,75.00
2023-09-11T22:22:58.134Z,74.26
2023-09-11T22:25:24.823Z,73.31
2023-09-11T22:27:51.439Z,73.73
2023-09-11T22:30:18.383Z,73.91
2023-09-11T22:32:55.249Z,73.35
2023-09-11T22:35:26.635Z,73.08
2023-09-11T22:37:54.370Z,74.87
2023-09-11T22:40:21.042Z,75.32
2023-09-11T22:42:48.068Z,73.58
2023-09-11T22:45:14.763Z,74.13
2023-09-11T22:47:41.575Z,72.84
2023-09-11T22:50:08.717Z,73.66
2023-09-11T22:52:37.582Z,73.96
2023-09-11T22:55:06.005Z,74.18
2023-09-11T22:57:32.677Z,73.33
2023-09-11T23:00:00.530Z,74.71
2023-09-11T23:02:27.883Z,74.41
2023-09-11T23:04:54.760Z,73.76
2023-09-11T23:07:21.443Z,74.10
2023-09-11T23:09:48.214Z,73.59
2023-09-11T23:12:15.039Z,73.67
2023-09-11T23:14:41.709Z,73.29
2023-09-11T23:17:08.446Z,73.23
2023-09-11T23:19:35.100Z,72.12
2023-09-11T23:22:01.841Z,72.05
2023-09-11T23:24:28.600Z,70.48
2023-09-11T23:26:55.288Z,71.96
2023-09-11T23:29:21.909Z,71.07
2023-09-11T23:31:48.643Z,71.63
2023-09-11T23:34:15.278Z,72.55
2023-09-11T23:36:42.031Z,71.49
2023-09-11T23:39:08.979Z,71.68
2023-09-11T23:41:36.023Z,71.92
2023-09-11T23:44:02.784Z,72.74
2023-09-11T23:46:29.436Z,73.33
2023-09-11T23:48:56.689Z,72.81
2023-09-11T23:51:23.576Z,73.90
2023-09-11T23:53:50.271Z,73.74
2023-09-11T23:56:17.111Z,73.22
2023-09-11T23:58:44.477Z,73.35
